Time;durP1;ratioP1;P1;durP2;ratioP2;P2;SDS_P1;SDS_P2;PMS_P1;PMS_P2;Temp;Humidity;BMP_temperature;BMP_pressure;BME280_temperature;BME280_humidity;BME280_pressure;Samples;Min_cycle;Max_cycle;Signal;HPM_P1;HPM_P2
2022/04/23 00:01:54;;;;;;;22.10;19.77;;;10.80;99.90;;;;;;6117655;29;20801;-66
2022/04/23 00:04:58;;;;;;;23.43;20.90;;;10.80;99.90;;;;;;6117984;29;20539;-66
2022/04/23 00:08:02;;;;;;;24.57;21.90;;;10.80;99.90;;;;;;6124909;29;20472;-66
2022/04/23 00:11:05;;;;;;;23.47;20.97;;;10.80;99.90;;;;;;6130607;29;20484;-66
2022/04/23 00:14:08;;;;;;;24.33;21.80;;;10.80;99.90;;;;;;6122545;29;20468;-66
2022/04/23 00:17:11;;;;;;;24.03;21.50;;;10.80;99.90;;;;;;6122284;29;20597;-66
2022/04/23 00:20:14;;;;;;;24.83;22.30;;;10.80;99.90;;;;;;6120599;29;20819;-66
2022/04/23 00:23:19;;;;;;;23.83;21.33;;;10.90;99.90;;;;;;6112412;29;20476;-65
2022/04/23 00:26:22;;;;;;;24.57;22.07;;;10.90;99.90;;;;;;6083995;29;20496;-65
2022/04/23 00:29:26;;;;;;;25.87;21.87;;;10.90;99.90;;;;;;6084272;29;20493;-66
2022/04/23 00:32:30;;;;;;;25.63;22.23;;;10.80;99.90;;;;;;6084019;29;20489;-65
2022/04/23 00:35:33;;;;;;;24.70;22.20;;;10.80;99.90;;;;;;6075496;29;20473;-66
2022/04/23 00:38:40;;;;;;;24.23;21.77;;;10.80;99.90;;;;;;6084053;29;20477;-66
2022/04/23 00:41:46;;;;;;;27.57;22.60;;;10.70;99.90;;;;;;6083861;29;20821;-66
2022/04/23 00:44:49;;;;;;;25.57;22.80;;;10.70;99.90;;;;;;6083704;29;20493;-65
2022/04/23 00:47:53;;;;;;;25.87;23.13;;;10.70;99.90;;;;;;6083884;29;20477;-66
2022/04/23 00:50:58;;;;;;;25.67;23.00;;;10.70;99.90;;;;;;6083504;29;20478;-66
2022/04/23 00:54:07;;;;;;;26.13;23.37;;;10.70;99.90;;;;;;6086116;29;20478;-66
2022/04/23 00:57:10;;;;;;;26.13;23.33;;;10.70;99.90;;;;;;6090465;29;20477;-66
2022/04/23 01:00:14;;;;;;;25.40;22.63;;;10.80;99.90;;;;;;6106820;29;20469;-66
2022/04/23 01:03:17;;;;;;;26.07;23.30;;;10.70;99.90;;;;;;6105829;29;20910;-66
2022/04/23 01:06:23;;;;;;;28.43;24.87;;;10.80;99.90;;;;;;6106646;29;20556;-65
2022/04/23 01:09:28;;;;;;;29.13;25.83;;;10.80;99.90;;;;;;6106707;29;20493;-62
2022/04/23 01:12:31;;;;;;;27.53;24.53;;;10.80;99.90;;;;;;6106280;29;20603;-62
2022/04/23 01:15:35;;;;;;;26.50;23.90;;;10.80;99.90;;;;;;6106261;29;20476;-62
2022/04/23 01:18:42;;;;;;;25.90;23.20;;;10.80;99.90;;;;;;6106312;29;20982;-62
2022/04/23 01:21:46;;;;;;;27.90;24.27;;;10.80;99.90;;;;;;6106768;29;20476;-65
2022/04/23 01:24:50;;;;;;;29.67;23.60;;;10.80;99.90;;;;;;6106031;29;20492;-63
2022/04/23 01:27:55;;;;;;;26.30;23.40;;;10.80;99.90;;;;;;6106433;29;20488;-64
2022/04/23 01:30:58;;;;;;;26.73;23.90;;;10.80;99.90;;;;;;6105970;29;20486;-64
2022/04/23 01:34:02;;;;;;;27.23;23.53;;;10.90;99.90;;;;;;6106036;29;20489;-64
2022/04/23 01:37:07;;;;;;;25.70;22.90;;;10.90;99.90;;;;;;6105940;29;20480;-63
2022/04/23 01:40:11;;;;;;;31.93;26.27;;;10.80;99.90;;;;;;6104836;29;20480;-63
2022/04/23 01:43:14;;;;;;;28.10;24.50;;;10.90;99.90;;;;;;6106760;29;20496;-63
2022/04/23 01:46:18;;;;;;;30.87;25.57;;;10.90;99.90;;;;;;6106381;29;20476;-63
2022/04/23 01:49:21;;;;;;;30.00;24.83;;;10.90;99.90;;;;;;6106790;29;20909;-63
2022/04/23 01:52:26;;;;;;;27.50;24.70;;;10.80;99.90;;;;;;6105871;29;20793;-63
2022/04/23 01:55:29;;;;;;;28.40;25.40;;;10.80;99.90;;;;;;6105751;29;20476;-63
2022/04/23 01:58:32;;;;;;;27.80;24.17;;;10.80;99.90;;;;;;6105987;29;20882;-63
2022/04/23 02:01:36;;;;;;;27.20;24.40;;;10.80;99.90;;;;;;6105830;29;20463;-64
2022/04/23 02:04:39;;;;;;;27.93;23.50;;;10.80;99.90;;;;;;6105504;29;20473;-64
2022/04/23 02:07:45;;;;;;;26.90;23.07;;;10.80;99.90;;;;;;6105881;29;20789;-64
2022/04/23 02:10:49;;;;;;;29.13;25.03;;;10.80;99.90;;;;;;6105794;29;20469;-63
2022/04/23 02:13:52;;;;;;;29.70;25.20;;;10.80;99.90;;;;;;6108842;29;20792;-63
2022/04/23 02:16:55;;;;;;;28.47;24.33;;;10.80;99.90;;;;;;6110252;29;20483;-63
2022/04/23 02:20:03;;;;;;;28.07;25.07;;;10.90;99.90;;;;;;6110649;29;20969;-63
2022/04/23 02:23:07;;;;;;;27.90;24.90;;;10.90;99.90;;;;;;6110736;29;20491;-63
2022/04/23 02:26:11;;;;;;;28.03;24.90;;;10.80;99.90;;;;;;6110044;29;20476;-63
2022/04/23 02:29:14;;;;;;;30.27;26.30;;;10.80;99.90;;;;;;6110510;29;20476;-63
2022/04/23 02:32:17;;;;;;;28.70;25.70;;;10.70;99.90;;;;;;6110454;29;20495;-63
2022/04/23 02:35:20;;;;;;;29.43;26.23;;;10.70;99.90;;;;;;6110269;29;20812;-63
2022/04/23 02:38:25;;;;;;;29.03;25.87;;;10.60;99.90;;;;;;6111065;29;20496;-63
2022/04/23 02:41:28;;;;;;;31.20;26.90;;;10.60;99.90;;;;;;6110303;29;20973;-63
2022/04/23 02:44:32;;;;;;;30.80;27.60;;;10.60;99.90;;;;;;6105631;29;20949;-63
2022/04/23 02:47:45;;;;;;;31.23;27.07;;;10.60;99.90;;;;;;6109678;29;20480;-63
2022/04/23 02:50:48;;;;;;;31.30;27.00;;;10.60;99.90;;;;;;6110003;29;20481;-63
2022/04/23 02:53:53;;;;;;;28.57;25.23;;;10.60;99.90;;;;;;6109328;29;20488;-63
2022/04/23 02:56:56;;;;;;;31.63;27.10;;;10.60;99.90;;;;;;6109707;29;20980;-63
2022/04/23 02:59:59;;;;;;;30.00;26.80;;;10.60;99.90;;;;;;6109533;29;20480;-63
2022/04/23 03:03:02;;;;;;;28.90;25.87;;;10.50;99.90;;;;;;6109786;29;20480;-63
2022/04/23 03:06:07;;;;;;;30.90;26.57;;;10.50;99.90;;;;;;6109562;29;20491;-63
2022/04/23 03:09:11;;;;;;;33.33;28.17;;;10.50;99.90;;;;;;6109557;29;20559;-63
2022/04/23 03:12:15;;;;;;;30.73;27.30;;;10.60;99.90;;;;;;6109220;29;20491;-63
2022/04/23 03:15:18;;;;;;;31.00;27.37;;;10.60;99.90;;;;;;6108999;29;20785;-64
2022/04/23 03:18:21;;;;;;;32.80;29.30;;;10.50;99.90;;;;;;6109413;29;20491;-63
2022/04/23 03:21:24;;;;;;;30.87;27.13;;;10.50;99.90;;;;;;6108995;29;20475;-63
2022/04/23 03:24:29;;;;;;;32.10;26.93;;;10.50;99.90;;;;;;6108155;29;20850;-63
2022/04/23 03:27:32;;;;;;;29.87;25.90;;;10.50;99.90;;;;;;6108967;29;20815;-63
2022/04/23 03:30:35;;;;;;;33.27;28.20;;;10.60;99.90;;;;;;6108605;29;20492;-63
2022/04/23 03:33:39;;;;;;;31.53;25.40;;;10.60;99.90;;;;;;6109511;29;20477;-63
2022/04/23 03:36:42;;;;;;;27.93;24.93;;;10.70;99.90;;;;;;6108847;29;20473;-63
2022/04/23 03:39:46;;;;;;;35.00;29.50;;;10.60;99.90;;;;;;6108959;29;20795;-63
2022/04/23 03:42:49;;;;;;;31.40;26.50;;;10.70;99.90;;;;;;6108727;29;20477;-63
2022/04/23 03:45:53;;;;;;;31.07;27.53;;;10.60;99.90;;;;;;6108631;29;20797;-63
2022/04/23 03:48:56;;;;;;;32.23;27.20;;;10.70;99.90;;;;;;6099304;29;20488;-63
2022/04/23 03:51:59;;;;;;;31.57;26.90;;;10.70;99.90;;;;;;6108521;29;20488;-63
2022/04/23 03:55:05;;;;;;;32.43;29.00;;;10.70;99.90;;;;;;6108044;29;20519;-64
2022/04/23 03:58:08;;;;;;;31.97;26.63;;;10.60;99.90;;;;;;6108428;29;20805;-64
2022/04/23 04:01:11;;;;;;;31.90;28.40;;;10.60;99.90;;;;;;6108068;29;20468;-64
2022/04/23 04:04:15;;;;;;;30.57;27.27;;;10.60;99.90;;;;;;6108402;29;20484;-64
2022/04/23 04:07:19;;;;;;;29.93;26.70;;;10.60;99.90;;;;;;6107993;29;20783;-63
2022/04/23 04:10:24;;;;;;;31.30;27.43;;;10.60;99.90;;;;;;6108363;29;20468;-63
2022/04/23 04:13:28;;;;;;;30.93;27.50;;;10.50;99.90;;;;;;6108313;29;20469;-64
2022/04/23 04:16:31;;;;;;;30.20;26.90;;;10.50;99.90;;;;;;6108486;29;20449;-63
2022/04/23 04:19:35;;;;;;;33.93;28.50;;;10.60;99.90;;;;;;6107858;29;20958;-63
2022/04/23 04:22:39;;;;;;;32.30;27.90;;;10.50;99.90;;;;;;6107647;29;20461;-63
2022/04/23 04:25:44;;;;;;;31.83;25.97;;;10.50;99.90;;;;;;6108233;29;20832;-63
2022/04/23 04:28:47;;;;;;;31.30;25.60;;;10.50;99.90;;;;;;6107585;29;20472;-64
2022/04/23 04:31:51;;;;;;;30.23;26.97;;;10.60;99.90;;;;;;6107786;29;20476;-63
2022/04/23 04:34:54;;;;;;;30.97;27.23;;;10.60;99.90;;;;;;6107279;29;20481;-63
2022/04/23 04:37:57;;;;;;;29.57;25.40;;;10.60;99.90;;;;;;6106815;29;20485;-63
2022/04/23 04:41:02;;;;;;;30.27;25.63;;;10.60;99.90;;;;;;6107193;29;20496;-63
2022/04/23 04:44:06;;;;;;;32.50;27.03;;;10.70;99.90;;;;;;6107194;29;20499;-63
2022/04/23 04:47:10;;;;;;;32.90;27.17;;;10.70;99.90;;;;;;6106893;29;20481;-63
2022/04/23 04:50:13;;;;;;;32.10;27.63;;;10.70;99.90;;;;;;6102722;29;20539;-64
2022/04/23 04:53:16;;;;;;;32.57;26.77;;;10.70;99.90;;;;;;6106842;29;21008;-64
2022/04/23 04:56:21;;;;;;;35.87;27.83;;;10.70;99.90;;;;;;6106864;29;20485;-64
2022/04/23 04:59:24;;;;;;;32.80;27.27;;;10.70;99.90;;;;;;6106699;29;21020;-63
2022/04/23 05:02:27;;;;;;;31.23;26.97;;;10.60;99.90;;;;;;6106849;29;20491;-63
2022/04/23 05:05:30;;;;;;;29.67;26.50;;;10.70;99.90;;;;;;6107016;29;20477;-64
2022/04/23 05:08:35;;;;;;;31.73;27.50;;;10.70;99.90;;;;;;6107010;29;20491;-63
2022/04/23 05:11:39;;;;;;;30.67;27.27;;;10.70;99.90;;;;;;6107946;29;20488;-63
2022/04/23 05:14:42;;;;;;;33.67;27.40;;;10.80;99.90;;;;;;6106549;29;20823;-63
2022/04/23 05:17:52;;;;;;;33.23;29.53;;;10.90;99.90;;;;;;6106780;29;20480;-63
2022/04/23 05:20:55;;;;;;;29.77;26.60;;;10.90;99.90;;;;;;6106637;29;20487;-63
2022/04/23 05:23:58;;;;;;;30.77;27.47;;;10.90;99.90;;;;;;6106347;29;20837;-63
2022/04/23 05:27:03;;;;;;;28.07;25.17;;;10.90;99.90;;;;;;6106446;29;20982;-63
2022/04/23 05:30:07;;;;;;;31.00;25.93;;;11.00;99.90;;;;;;6106099;29;20477;-64
2022/04/23 05:33:11;;;;;;;32.27;26.07;;;11.10;99.90;;;;;;6105963;29;20829;-63
2022/04/23 05:36:14;;;;;;;32.50;27.23;;;11.10;99.90;;;;;;6106093;29;20820;-64
2022/04/23 05:39:17;;;;;;;31.60;28.20;;;11.10;99.90;;;;;;6106071;29;20488;-64
2022/04/23 05:42:24;;;;;;;30.70;27.40;;;11.20;99.90;;;;;;6105951;29;20544;-64
2022/04/23 05:45:28;;;;;;;30.80;27.50;;;11.30;99.90;;;;;;6106044;29;20957;-63
2022/04/23 05:48:32;;;;;;;31.93;28.07;;;11.30;99.90;;;;;;6105575;29;20480;-64
2022/04/23 05:51:35;;;;;;;31.50;27.13;;;11.40;99.90;;;;;;6106017;29;20485;-64
2022/04/23 05:54:38;;;;;;;30.30;27.00;;;11.40;99.90;;;;;;6105656;29;20485;-64
2022/04/23 05:57:43;;;;;;;31.27;27.93;;;11.50;99.90;;;;;;6105785;29;20564;-63
2022/04/23 06:00:46;;;;;;;31.67;27.93;;;11.60;99.90;;;;;;6105495;29;20480;-64
2022/04/23 06:03:50;;;;;;;31.83;28.43;;;11.60;99.90;;;;;;6105736;29;20487;-63
2022/04/23 06:06:53;;;;;;;31.37;28.07;;;11.60;99.90;;;;;;6105546;29;20484;-63
2022/04/23 06:09:56;;;;;;;31.17;27.37;;;11.70;99.90;;;;;;6105715;29;20483;-64
2022/04/23 06:13:00;;;;;;;29.77;26.57;;;11.80;99.90;;;;;;6105407;29;20495;-63
2022/04/23 06:16:04;;;;;;;28.60;25.50;;;11.90;99.90;;;;;;6105558;29;20476;-64
2022/04/23 06:19:07;;;;;;;30.13;25.50;;;11.90;99.90;;;;;;6106006;29;20481;-64
2022/04/23 06:22:10;;;;;;;27.47;23.77;;;12.00;99.90;;;;;;6105697;29;20483;-64
2022/04/23 06:25:13;;;;;;;28.93;23.30;;;12.10;99.90;;;;;;6105616;29;20486;-63
2022/04/23 06:28:18;;;;;;;25.60;22.87;;;12.20;99.90;;;;;;6105397;29;20485;-63
2022/04/23 06:31:22;;;;;;;26.63;23.53;;;12.20;99.90;;;;;;6105552;29;20464;-63
2022/04/23 06:34:27;;;;;;;27.00;24.20;;;12.30;99.90;;;;;;6105405;29;20469;-63
2022/04/23 06:37:32;;;;;;;26.17;23.37;;;12.20;99.90;;;;;;6105377;29;20526;-63
2022/04/23 06:40:35;;;;;;;26.90;23.03;;;12.20;99.90;;;;;;6105171;29;20444;-63
2022/04/23 06:43:40;;;;;;;28.17;23.77;;;12.10;99.90;;;;;;6105285;29;20469;-63
2022/04/23 06:46:44;;;;;;;28.43;24.30;;;12.10;99.90;;;;;;6105645;29;20492;-64
2022/04/23 06:49:47;;;;;;;29.50;25.40;;;11.90;99.90;;;;;;6105617;29;20522;-64
2022/04/23 06:52:50;;;;;;;28.27;25.30;;;11.70;99.90;;;;;;6104870;29;20472;-63
2022/04/23 06:55:53;;;;;;;29.13;24.10;;;11.70;99.90;;;;;;6096219;29;20803;-62
2022/04/23 06:58:58;;;;;;;27.70;24.00;;;11.70;99.90;;;;;;6105296;29;20485;-63
2022/04/23 07:02:02;;;;;;;28.27;25.37;;;11.60;99.90;;;;;;6108882;29;20973;-64
2022/04/23 07:05:06;;;;;;;28.67;24.43;;;11.40;99.90;;;;;;6109680;29;20567;-64
2022/04/23 07:08:09;;;;;;;24.60;21.87;;;11.50;99.90;;;;;;6109862;29;20965;-64
2022/04/23 07:11:13;;;;;;;23.63;21.13;;;11.60;99.90;;;;;;6109772;29;20483;-65
2022/04/23 07:14:17;;;;;;;26.90;23.87;;;11.60;99.90;;;;;;6109142;29;20483;-66
2022/04/23 07:17:25;;;;;;;24.47;21.43;;;11.70;99.90;;;;;;6109474;29;20560;-66
2022/04/23 07:20:28;;;;;;;27.93;23.37;;;11.90;99.90;;;;;;6109593;29;20487;-65
2022/04/23 07:27:06;;;;;;;27.73;22.80;;;12.30;99.90;;;;;;6037440;29;20491;-65
2022/04/23 07:30:12;;;;;;;33.10;23.60;;;12.50;99.90;;;;;;6037073;29;20475;-66
2022/04/23 07:37:28;;;;;;;26.80;22.00;;;12.60;99.90;;;;;;6106005;29;20495;-65
2022/04/23 07:40:00;;;;;;;27.23;22.30;;;12.80;99.90;;;;;;6109327;29;20484;-67
2022/04/23 07:43:03;;;;;;;29.70;23.23;;;12.80;99.90;;;;;;6108615;29;20571;-66
2022/04/23 07:46:08;;;;;;;30.33;24.20;;;12.90;99.90;;;;;;6108465;29;20809;-67
2022/04/23 07:49:11;;;;;;;34.30;23.60;;;12.80;99.90;;;;;;6108606;29;20476;-66
2022/04/23 07:52:14;;;;;;;29.07;22.40;;;12.90;99.90;;;;;;6108562;29;20487;-66
2022/04/23 07:55:17;;;;;;;29.03;22.47;;;13.00;99.90;;;;;;6108463;29;20496;-66
2022/04/23 07:58:21;;;;;;;30.57;24.00;;;13.00;99.90;;;;;;6098921;29;20476;-66
2022/04/23 08:01:25;;;;;;;28.13;23.13;;;12.90;99.90;;;;;;6108436;29;20897;-66
2022/04/23 08:04:28;;;;;;;31.20;21.77;;;12.90;99.90;;;;;;6108018;29;20469;-65
2022/04/23 08:07:31;;;;;;;36.17;23.50;;;13.10;99.90;;;;;;6108448;29;20449;-66
2022/04/23 08:10:35;;;;;;;31.60;22.17;;;13.30;99.90;;;;;;6108053;29;20444;-67
2022/04/23 08:13:38;;;;;;;28.93;22.77;;;13.40;99.90;;;;;;6108093;29;20488;-66
2022/04/23 08:16:45;;;;;;;28.63;23.10;;;13.30;99.90;;;;;;6107719;29;20507;-66
2022/04/23 08:19:48;;;;;;;33.27;22.37;;;13.20;99.90;;;;;;6108450;29;20480;-64
2022/04/23 08:22:51;;;;;;;28.03;21.50;;;13.10;99.90;;;;;;6107904;29;20488;-63
2022/04/23 08:25:56;;;;;;;28.83;21.00;;;13.10;99.90;;;;;;6107754;29;20483;-64
2022/04/23 08:32:21;;;;;;;30.07;20.80;;;13.40;99.90;;;;;;6107402;29;20481;-63
2022/04/23 08:35:24;;;;;;;28.67;21.53;;;13.60;99.90;;;;;;6108285;29;20484;-63
2022/04/23 08:38:27;;;;;;;27.93;22.27;;;13.80;99.90;;;;;;6107780;29;20488;-64
2022/04/23 08:41:31;;;;;;;32.07;21.03;;;14.00;99.90;;;;;;6106904;29;20491;-65
2022/04/23 08:44:41;;;;;;;25.17;19.97;;;14.30;99.80;;;;;;6107203;29;20481;-63
2022/04/23 08:47:46;;;;;;;26.13;19.03;;;14.40;99.10;;;;;;6107190;29;20572;-67
2022/04/23 08:50:52;;;;;;;28.50;20.63;;;14.30;98.40;;;;;;6107286;29;20476;-68
2022/04/23 08:53:58;;;;;;;26.23;20.57;;;14.30;98.70;;;;;;6107104;29;20485;-66
2022/04/23 08:57:01;;;;;;;22.27;18.60;;;14.20;98.90;;;;;;6106792;29;20472;-65
2022/04/23 09:00:08;;;;;;;25.03;22.17;;;14.30;98.70;;;;;;6106702;29;20798;-66
2022/04/23 09:03:15;;;;;;;27.63;21.83;;;14.30;98.70;;;;;;6107314;29;20496;-63
2022/04/23 09:06:19;;;;;;;31.17;23.13;;;14.30;98.70;;;;;;6130077;28;20566;-63
2022/04/23 09:09:25;;;;;;;26.03;22.80;;;14.30;98.80;;;;;;6130048;29;20479;-66
2022/04/23 09:12:28;;;;;;;25.20;21.33;;;14.40;98.80;;;;;;6128710;29;20490;-65
2022/04/23 09:25:44;;;;;;;21.67;19.37;;;15.20;97.00;;;;;;6128029;28;20469;-64
2022/04/23 09:28:48;;;;;;;22.90;19.63;;;15.20;96.60;;;;;;6128802;29;20819;-65
2022/04/23 09:32:08;;;;;;;22.10;19.80;;;15.30;96.70;;;;;;6129267;29;20963;-65
2022/04/23 09:35:14;;;;;;;21.40;19.27;;;15.40;96.20;;;;;;6129373;29;20472;-64
2022/04/23 09:38:18;;;;;;;24.10;18.73;;;15.60;96.00;;;;;;6130186;29;20480;-64
2022/04/23 09:41:32;;;;;;;20.03;17.10;;;15.70;95.30;;;;;;6129658;29;20779;-64
2022/04/23 09:44:35;;;;;;;22.13;18.60;;;15.80;95.00;;;;;;6129160;29;20476;-64
2022/04/23 09:47:42;;;;;;;20.63;18.07;;;15.70;94.80;;;;;;6129694;29;20476;-64
2022/04/23 09:50:49;;;;;;;20.80;18.00;;;15.50;94.80;;;;;;6128127;29;20603;-65
2022/04/23 09:53:54;;;;;;;19.47;17.20;;;15.20;95.00;;;;;;6128578;29;20490;-63
2022/04/23 09:56:58;;;;;;;20.10;18.00;;;15.10;95.40;;;;;;6129255;28;20472;-63
2022/04/23 10:00:01;;;;;;;21.60;18.70;;;15.00;95.70;;;;;;6129450;29;20999;-64
2022/04/23 10:03:07;;;;;;;22.20;19.90;;;15.00;95.80;;;;;;6129269;29;20475;-64
2022/04/23 10:06:14;;;;;;;19.33;17.43;;;15.10;95.80;;;;;;6129452;29;20475;-64
2022/04/23 10:09:20;;;;;;;20.07;17.97;;;15.10;95.70;;;;;;6120010;29;20948;-64
2022/04/23 10:12:26;;;;;;;20.23;18.10;;;15.00;95.70;;;;;;6129361;28;20622;-64
2022/04/23 10:15:31;;;;;;;21.20;18.37;;;14.90;95.90;;;;;;6129146;29;20480;-65
2022/04/23 10:18:38;;;;;;;23.20;20.07;;;14.90;96.10;;;;;;6129122;29;20550;-65
2022/04/23 10:21:53;;;;;;;19.17;17.37;;;14.60;96.30;;;;;;6129014;29;20482;-65
2022/04/23 10:25:02;;;;;;;19.90;17.80;;;14.50;96.60;;;;;;6128950;29;20496;-66
2022/04/23 10:28:05;;;;;;;21.90;18.17;;;14.50;96.60;;;;;;6128811;29;21160;-65
2022/04/23 10:31:15;;;;;;;19.47;16.87;;;14.50;96.80;;;;;;6128909;29;20475;-65
2022/04/23 10:34:34;;;;;;;17.67;15.87;;;14.50;96.80;;;;;;6129531;29;20479;-65
2022/04/23 10:37:42;;;;;;;19.30;17.30;;;14.40;96.90;;;;;;6133977;28;20464;-65
2022/04/23 10:40:46;;;;;;;18.37;16.57;;;14.40;96.90;;;;;;6133655;29;20490;-65
2022/04/23 10:43:52;;;;;;;17.87;15.97;;;14.40;96.70;;;;;;6133888;29;20472;-66
2022/04/23 10:46:58;;;;;;;20.30;18.30;;;14.50;96.90;;;;;;6133354;29;20486;-65
2022/04/23 10:50:31;;;;;;;17.50;15.70;;;14.50;97.00;;;;;;6133474;29;20486;-65
2022/04/23 10:53:51;;;;;;;17.30;15.40;;;14.30;97.10;;;;;;6121505;29;20951;-65
2022/04/23 10:56:57;;;;;;;19.53;17.37;;;14.40;97.50;;;;;;6133438;28;20472;-65
2022/04/23 11:00:11;;;;;;;18.93;14.93;;;14.50;97.60;;;;;;6133216;29;20479;-65
2022/04/23 11:03:15;;;;;;;19.33;17.43;;;14.60;97.50;;;;;;6133226;29;20479;-65
2022/04/23 11:13:31;;;;;;;19.97;17.80;;;14.30;98.10;;;;;;6128947;29;20484;-65
2022/04/23 11:16:34;;;;;;;19.83;17.90;;;14.40;98.00;;;;;;6133409;29;20450;-65
2022/04/23 11:19:39;;;;;;;21.00;18.90;;;14.40;97.90;;;;;;6132919;29;20878;-65
2022/04/23 11:22:43;;;;;;;20.30;18.20;;;14.30;98.00;;;;;;6132506;29;20475;-65
2022/04/23 11:25:56;;;;;;;18.73;16.73;;;14.10;98.30;;;;;;6133089;29;20482;-65
2022/04/23 11:29:00;;;;;;;20.57;18.47;;;14.10;98.80;;;;;;6132597;29;20476;-65
2022/04/23 11:32:04;;;;;;;18.60;16.70;;;14.10;98.90;;;;;;6132470;29;20472;-65
2022/04/23 11:35:09;;;;;;;21.47;18.10;;;14.20;99.20;;;;;;6132561;29;20475;-65
2022/04/23 11:38:23;;;;;;;21.77;16.93;;;14.30;99.20;;;;;;6132417;29;20970;-65
2022/04/23 11:41:30;;;;;;;17.10;15.30;;;14.40;99.10;;;;;;6132321;29;20504;-65
2022/04/23 11:44:50;;;;;;;16.93;15.23;;;14.50;98.90;;;;;;6132028;29;20472;-65
2022/04/23 11:47:53;;;;;;;16.93;15.23;;;14.60;98.90;;;;;;6131644;29;20567;-65
2022/04/23 11:51:06;;;;;;;17.47;15.63;;;14.80;98.80;;;;;;6132340;29;20482;-65
2022/04/23 11:54:09;;;;;;;18.30;16.30;;;15.00;98.80;;;;;;6131466;29;20484;-65
2022/04/23 11:57:14;;;;;;;17.60;15.73;;;15.10;98.60;;;;;;6131967;29;20479;-65
2022/04/23 12:00:21;;;;;;;18.97;16.43;;;15.30;98.30;;;;;;6131530;29;20783;-65
2022/04/23 12:03:26;;;;;;;15.30;13.67;;;15.40;97.80;;;;;;6131767;29;20969;-65
2022/04/23 12:06:43;;;;;;;16.67;14.63;;;15.50;97.50;;;;;;6131901;29;20612;-65
2022/04/23 12:09:47;;;;;;;16.07;14.47;;;15.40;97.10;;;;;;6131839;29;20964;-65
2022/04/23 12:12:52;;;;;;;17.80;15.77;;;15.30;96.90;;;;;;6131302;29;20480;-65
2022/04/23 12:15:55;;;;;;;16.33;14.80;;;15.20;97.20;;;;;;6131368;29;20483;-64
2022/04/23 12:18:59;;;;;;;18.97;16.93;;;15.20;97.30;;;;;;6131343;29;20472;-65
2022/04/23 12:22:02;;;;;;;20.80;18.00;;;15.20;97.40;;;;;;6131258;29;20479;-65
2022/04/23 12:25:09;;;;;;;18.40;15.70;;;14.90;97.80;;;;;;6131300;29;20527;-65
2022/04/23 12:41:41;;;;;;;22.03;17.70;;;14.70;98.30;;;;;;6131417;29;20517;-63
2022/04/23 12:44:46;;;;;;;21.90;18.70;;;14.40;98.70;;;;;;6130722;29;20477;-63
2022/04/23 12:47:50;;;;;;;19.03;16.83;;;14.60;98.90;;;;;;6130944;29;20472;-64
2022/04/23 12:51:04;;;;;;;20.60;17.50;;;14.90;98.70;;;;;;6130746;29;20482;-65
2022/04/23 12:54:13;;;;;;;20.50;18.07;;;15.20;98.30;;;;;;6130633;29;20488;-64
2022/04/23 12:57:17;;;;;;;17.90;16.10;;;15.40;97.90;;;;;;6129911;29;20518;-64
2022/04/23 13:00:23;;;;;;;20.97;18.67;;;15.60;97.50;;;;;;6130393;29;20479;-64
2022/04/23 13:03:34;;;;;;;19.47;16.00;;;15.80;96.80;;;;;;6130348;29;20486;-64
2022/04/23 13:09:58;;;;;;;18.07;16.27;;;15.90;96.50;;;;;;6130411;29;20483;-64
2022/04/23 13:13:02;;;;;;;17.17;14.77;;;16.10;96.40;;;;;;6131010;29;20482;-64
2022/04/23 13:16:07;;;;;;;16.37;14.67;;;16.20;96.40;;;;;;6130255;29;20563;-63
2022/04/23 13:19:10;;;;;;;17.10;15.30;;;16.30;96.10;;;;;;6130092;29;20566;-63
2022/04/23 13:22:13;;;;;;;17.70;15.50;;;16.40;96.00;;;;;;6121115;28;20490;-63
2022/04/23 13:25:17;;;;;;;16.10;14.53;;;16.30;95.80;;;;;;6130528;29;20464;-63
2022/04/23 13:28:22;;;;;;;16.50;14.80;;;16.30;95.70;;;;;;6129885;28;20949;-63
2022/04/23 13:31:27;;;;;;;17.07;15.27;;;16.30;95.80;;;;;;6130258;29;20451;-63
2022/04/23 13:34:30;;;;;;;17.23;15.33;;;16.10;95.90;;;;;;6130312;29;20464;-63
2022/04/23 13:37:34;;;;;;;17.63;15.93;;;16.00;95.80;;;;;;6130037;29;20905;-63
2022/04/23 13:40:37;;;;;;;17.30;15.47;;;16.00;96.00;;;;;;6129733;29;20447;-63
2022/04/23 13:43:43;;;;;;;15.53;14.07;;;15.90;96.20;;;;;;6129775;29;20471;-63
2022/04/23 13:46:49;;;;;;;17.27;15.47;;;15.70;96.60;;;;;;6129849;29;20482;-63
2022/04/23 13:49:53;;;;;;;16.30;14.50;;;15.60;96.80;;;;;;6129815;29;20486;-63
2022/04/23 13:52:56;;;;;;;18.30;15.70;;;15.50;97.10;;;;;;6129835;29;20559;-63
2022/04/23 13:55:59;;;;;;;17.00;15.30;;;15.60;97.40;;;;;;6129296;29;20478;-63
2022/04/23 13:59:03;;;;;;;14.83;13.33;;;15.80;97.40;;;;;;6129483;28;20971;-63
2022/04/23 14:12:12;;;;;;;16.53;14.80;;;16.00;96.40;;;;;;6129375;28;20476;-64
2022/04/23 14:15:15;;;;;;;17.00;15.00;;;15.90;96.60;;;;;;6129321;29;20515;-64
2022/04/23 14:18:19;;;;;;;17.63;15.77;;;15.80;96.60;;;;;;6129131;28;20790;-64
2022/04/23 14:21:23;;;;;;;16.67;15.03;;;15.70;96.80;;;;;;6129762;29;20486;-63
2022/04/23 14:24:26;;;;;;;16.77;15.00;;;15.60;96.90;;;;;;6124886;28;20819;-64
2022/04/23 14:27:30;;;;;;;18.80;16.50;;;15.60;97.00;;;;;;6129608;29;20483;-64
2022/04/23 14:30:35;;;;;;;16.70;15.00;;;15.60;97.20;;;;;;6128814;29;20479;-63
2022/04/23 14:33:39;;;;;;;17.70;15.43;;;15.60;97.70;;;;;;6129218;29;20491;-63
2022/04/23 14:36:42;;;;;;;16.63;14.93;;;15.50;97.60;;;;;;6128843;29;20977;-63
2022/04/23 14:39:46;;;;;;;17.70;15.80;;;15.40;97.80;;;;;;6129728;29;20998;-65
2022/04/23 14:42:51;;;;;;;15.80;14.27;;;15.40;97.90;;;;;;6129043;28;20468;-63
2022/04/23 14:45:54;;;;;;;15.57;13.93;;;15.40;97.90;;;;;;6129629;29;20566;-64
2022/04/23 14:48:59;;;;;;;16.13;14.57;;;15.60;97.80;;;;;;6129184;28;20479;-64
2022/04/23 14:55:23;;;;;;;15.70;14.00;;;15.90;97.50;;;;;;6128478;29;20472;-63
2022/04/23 14:58:26;;;;;;;16.60;14.40;;;16.10;97.40;;;;;;6129196;29;20465;-62
2022/04/23 15:01:29;;;;;;;15.83;14.20;;;16.20;97.20;;;;;;6129080;29;20444;-62
2022/04/23 15:04:34;;;;;;;16.53;14.83;;;16.20;97.10;;;;;;6128579;29;20471;-62
2022/04/23 15:07:44;;;;;;;17.87;16.07;;;16.20;96.90;;;;;;6128641;29;20471;-63
2022/04/23 15:10:47;;;;;;;16.30;14.70;;;16.20;96.90;;;;;;6128690;29;20478;-63
2022/04/23 15:13:50;;;;;;;15.43;13.83;;;16.10;97.20;;;;;;6128502;28;20489;-63
2022/04/23 15:16:54;;;;;;;16.40;14.90;;;15.90;97.30;;;;;;6129026;29;20472;-63
2022/04/23 15:19:58;;;;;;;16.67;14.90;;;15.90;97.50;;;;;;6136393;28;20997;-62
2022/04/23 15:23:01;;;;;;;16.80;14.60;;;15.80;97.70;;;;;;6134731;29;20596;-63
2022/04/23 15:26:05;;;;;;;18.43;16.30;;;15.80;98.00;;;;;;6132765;29;20483;-63
2022/04/23 15:29:08;;;;;;;17.13;15.43;;;15.70;98.30;;;;;;6132626;29;20481;-64
2022/04/23 15:32:12;;;;;;;17.30;15.60;;;15.50;98.50;;;;;;6132430;29;20475;-64
2022/04/23 15:35:16;;;;;;;17.10;15.40;;;15.40;98.90;;;;;;6132871;29;20483;-63
2022/04/23 15:38:21;;;;;;;18.33;16.43;;;15.30;99.10;;;;;;6132585;29;20483;-63
2022/04/23 15:41:26;;;;;;;16.53;14.57;;;15.30;99.20;;;;;;6132208;29;20472;-64
2022/04/23 15:44:29;;;;;;;18.63;16.70;;;15.20;99.20;;;;;;6132417;29;20480;-63
2022/04/23 15:47:32;;;;;;;17.87;15.93;;;15.30;99.40;;;;;;6132435;29;20482;-63
2022/04/23 15:50:36;;;;;;;19.07;16.90;;;15.30;99.50;;;;;;6132057;29;20564;-63
2022/04/23 15:53:40;;;;;;;18.27;16.53;;;15.30;99.50;;;;;;6131676;29;20488;-63
2022/04/23 15:56:45;;;;;;;19.90;17.00;;;15.30;99.40;;;;;;6131607;29;20483;-63
2022/04/23 15:59:49;;;;;;;17.90;16.10;;;15.30;99.50;;;;;;6131783;28;20479;-63
2022/04/23 16:06:10;;;;;;;16.83;15.13;;;15.40;99.30;;;;;;6130932;29;20552;-63
2022/04/23 16:09:15;;;;;;;18.23;16.20;;;15.40;99.30;;;;;;6132031;28;20494;-62
2022/04/23 16:12:18;;;;;;;17.50;15.67;;;15.40;99.40;;;;;;6131678;29;20482;-64
2022/04/23 16:15:21;;;;;;;19.37;16.30;;;15.30;99.20;;;;;;6131389;28;20475;-63
2022/04/23 16:18:30;;;;;;;16.77;15.07;;;15.40;99.60;;;;;;6131247;29;20558;-63
2022/04/23 16:21:36;;;;;;;17.20;15.50;;;15.30;99.50;;;;;;6131186;29;20983;-64
2022/04/23 16:24:39;;;;;;;17.73;15.83;;;15.30;99.40;;;;;;6131450;29;20479;-64
2022/04/23 16:27:43;;;;;;;16.97;15.30;;;15.30;99.60;;;;;;6131276;28;20483;-64
2022/04/23 16:30:46;;;;;;;19.70;17.70;;;15.30;99.70;;;;;;6131171;29;20468;-63
2022/04/23 16:33:51;;;;;;;19.93;17.83;;;15.30;99.70;;;;;;6126166;29;20478;-63
2022/04/23 16:46:56;;;;;;;22.17;20.07;;;15.30;99.90;;;;;;6128083;29;20456;-64
2022/04/23 16:50:00;;;;;;;25.57;20.33;;;15.20;99.90;;;;;;6130682;29;20472;-62